Time;durP1;ratioP1;P1;durP2;ratioP2;P2;SDS_P1;SDS_P2;PMS_P1;PMS_P2;Temp;Humidity;BMP_temperature;BMP_pressure;BME280_temperature;BME280_humidity;BME280_pressure;Samples;Min_cycle;Max_cycle;Signal;HPM_P1;HPM_P2
2021/01/16 00:02:12;;;;;;;22.95;10.73;;;;;;;-1.91;86.21;100103.69;5098559;28;20133;-80
2021/01/16 00:04:38;;;;;;;21.63;10.20;;;;;;;-1.92;86.61;100115.31;5091100;28;20480;-80
2021/01/16 00:07:05;;;;;;;19.90;9.53;;;;;;;-1.76;86.38;100126.00;5108855;28;20107;-80
2021/01/16 00:09:31;;;;;;;21.70;10.00;;;;;;;-1.74;86.94;100129.47;5111888;28;20055;-80
2021/01/16 00:11:58;;;;;;;21.30;10.40;;;;;;;-1.93;86.89;100103.78;5107960;28;20051;-80
2021/01/16 00:14:24;;;;;;;18.40;10.57;;;;;;;-1.92;86.61;100102.84;5098703;28;20393;-80
2021/01/16 00:16:50;;;;;;;18.97;10.57;;;;;;;-1.86;86.60;100112.34;5105598;28;20051;-80
2021/01/16 00:19:17;;;;;;;20.70;9.73;;;;;;;-1.95;86.82;100095.03;5091557;28;20047;-80
2021/01/16 00:21:44;;;;;;;22.30;10.80;;;;;;;-1.87;86.58;100113.25;5091940;28;20492;-80
2021/01/16 00:24:11;;;;;;;21.30;9.43;;;;;;;-1.83;87.04;100110.34;5109227;28;20139;-80
2021/01/16 00:26:47;;;;;;;16.60;9.63;;;;;;;-1.83;86.11;100109.50;5113263;28;20058;-80
2021/01/16 00:29:15;;;;;;;21.00;10.17;;;;;;;-1.82;86.37;100119.22;5097958;28;20787;-80
2021/01/16 00:31:42;;;;;;;22.33;9.67;;;;;;;-1.84;86.43;100123.75;5095020;28;20048;-80
2021/01/16 00:34:08;;;;;;;24.70;10.90;;;;;;;-1.83;86.55;100129.00;5111570;28;20067;-80
2021/01/16 00:36:34;;;;;;;21.73;10.03;;;;;;;-1.89;86.23;100108.00;5131804;27;20080;-79
2021/01/16 00:39:00;;;;;;;19.17;9.97;;;;;;;-1.94;86.92;100106.53;5094849;27;20101;-80
2021/01/16 00:41:31;;;;;;;17.97;9.53;;;;;;;-1.84;86.27;100108.63;5111414;28;20530;-80
2021/01/16 00:43:57;;;;;;;24.00;10.73;;;;;;;-1.85;86.21;100112.25;5117036;28;20438;-80
2021/01/16 00:46:28;;;;;;;22.33;10.20;;;;;;;-1.86;86.47;100120.31;5103000;28;20168;-80
2021/01/16 00:48:57;;;;;;;22.97;10.27;;;;;;;-1.98;86.05;100090.72;5100180;28;20044;-80
2021/01/16 00:51:23;;;;;;;23.53;11.10;;;;;;;-1.78;86.65;100123.44;5103131;28;20396;-79
2021/01/16 00:54:06;;;;;;;20.70;11.00;;;;;;;-1.74;86.43;100111.66;5113635;28;20113;-79
2021/01/16 00:56:34;;;;;;;22.70;10.30;;;;;;;-1.94;86.59;100093.22;5101911;28;20077;-80
2021/01/16 00:59:00;;;;;;;22.10;10.00;;;;;;;-1.88;86.81;100115.09;5110882;28;20055;-80
2021/01/16 01:01:30;;;;;;;23.40;10.37;;;;;;;-1.90;87.37;100106.28;5109993;28;20062;-80
2021/01/16 01:04:00;;;;;;;23.23;11.07;;;;;;;-1.91;87.54;100115.25;5093270;28;20052;-80
2021/01/16 01:06:27;;;;;;;23.30;11.10;;;;;;;-1.85;87.05;100106.91;5111694;28;20150;-79
2021/01/16 01:08:53;;;;;;;20.83;10.47;;;;;;;-1.86;87.24;100120.31;5105584;28;20059;-80
2021/01/16 01:11:20;;;;;;;20.13;10.43;;;;;;;-1.92;87.30;100105.50;5093281;28;20612;-79
2021/01/16 01:13:50;;;;;;;21.80;11.43;;;;;;;-1.99;87.19;100099.66;5096825;28;20048;-80
2021/01/16 01:16:16;;;;;;;23.73;11.23;;;;;;;-1.95;87.21;100105.69;5092884;28;20396;-79
2021/01/16 01:18:45;;;;;;;20.23;10.00;;;;;;;-1.94;87.57;100115.41;5111661;28;20051;-79
2021/01/16 01:21:14;;;;;;;22.00;11.30;;;;;;;-1.89;87.54;100115.16;5112662;28;20054;-80
2021/01/16 01:23:40;;;;;;;23.83;11.33;;;;;;;-2.06;87.21;100078.72;5112604;28;20054;-79
2021/01/16 01:26:16;;;;;;;22.37;11.50;;;;;;;-1.87;87.36;100107.94;5109512;28;20040;-80
2021/01/16 01:28:44;;;;;;;31.10;12.43;;;;;;;-2.05;87.27;100077.81;5112858;28;20490;-80
2021/01/16 01:31:15;;;;;;;30.03;12.60;;;;;;;-1.86;87.11;100110.50;5092303;28;20052;-80
2021/01/16 01:33:41;;;;;;;24.87;11.17;;;;;;;-1.99;86.97;100090.78;5110312;28;20043;-79
2021/01/16 01:36:11;;;;;;;24.40;11.30;;;;;;;-2.04;87.15;100091.03;5113253;28;20675;-80
2021/01/16 01:38:37;;;;;;;21.45;11.23;;;;;;;-1.99;87.06;100090.78;5110534;28;20054;-80
2021/01/16 01:41:05;;;;;;;26.43;13.07;;;;;;;-2.05;87.16;100080.47;5122915;28;20055;-79
2021/01/16 01:43:31;;;;;;;24.97;12.63;;;;;;;-1.88;86.92;100103.53;5121943;28;20051;-80
2021/01/16 01:45:57;;;;;;;28.60;11.40;;;;;;;-2.06;87.21;100084.06;5112730;28;20048;-80
2021/01/16 01:48:25;;;;;;;23.93;11.50;;;;;;;-2.08;87.29;100080.63;5112895;28;20055;-80
2021/01/16 01:50:52;;;;;;;22.23;10.33;;;;;;;-1.94;87.16;100111.88;5092725;28;20063;-80
2021/01/16 01:53:20;;;;;;;22.20;10.63;;;;;;;-1.85;87.22;100112.25;5092805;28;20078;-80
2021/01/16 01:55:53;;;;;;;25.33;11.03;;;;;;;-1.99;87.72;100096.13;5098686;28;20100;-80
2021/01/16 01:58:28;;;;;;;23.43;10.77;;;;;;;-1.87;87.34;100105.25;5116765;28;20046;-80
2021/01/16 02:00:54;;;;;;;21.20;10.40;;;;;;;-1.92;87.79;100102.84;5096725;28;20059;-80
2021/01/16 02:03:23;;;;;;;20.63;10.97;;;;;;;-2.05;87.68;100091.97;5116444;28;20051;-80
2021/01/16 02:05:54;;;;;;;22.50;10.13;;;;;;;-2.09;87.48;100093.09;5116771;28;20048;-80
2021/01/16 02:08:20;;;;;;;20.07;9.80;;;;;;;-2.09;87.42;100101.09;5116618;28;20377;-80
2021/01/16 02:10:46;;;;;;;20.83;10.33;;;;;;;-2.00;87.62;100100.59;5116605;28;20051;-80
2021/01/16 02:13:13;;;;;;;20.33;10.33;;;;;;;-2.09;87.46;100078.91;5108490;28;20056;-79
2021/01/16 02:16:01;;;;;;;24.50;10.83;;;;;;;-1.97;86.92;100091.59;5080388;28;20044;-80
2021/01/16 02:18:35;;;;;;;20.37;10.27;;;;;;;-1.96;87.64;100094.16;5116387;28;20138;-80
2021/01/16 02:21:05;;;;;;;20.93;9.80;;;;;;;-1.97;87.03;100086.25;5116482;28;20055;-80
2021/01/16 02:23:33;;;;;;;24.10;10.02;;;;;;;-1.86;87.17;100105.19;5116108;28;20044;-80
2021/01/16 02:26:46;;;;;;;20.53;9.97;;;;;;;-1.91;87.22;100095.69;5115367;28;20404;-79
2021/01/16 02:29:14;;;;;;;23.20;11.67;;;;;;;-1.87;87.29;100098.13;5093783;28;20040;-80
2021/01/16 02:31:43;;;;;;;23.57;10.17;;;;;;;-1.97;87.51;100100.44;5095663;28;20127;-80
2021/01/16 02:34:16;;;;;;;25.33;9.90;;;;;;;-1.99;87.71;100090.78;5095544;28;20048;-80
2021/01/16 02:37:01;;;;;;;21.20;10.40;;;;;;;-1.96;87.50;100104.84;5095607;28;20048;-80
2021/01/16 02:39:36;;;;;;;24.60;10.67;;;;;;;-1.99;88.02;100094.34;5095565;28;20052;-79
2021/01/16 02:42:07;;;;;;;22.73;10.60;;;;;;;-1.88;87.30;100100.88;5099201;28;20453;-80
2021/01/16 02:44:49;;;;;;;23.03;11.03;;;;;;;-1.86;87.08;100104.34;5094912;28;20131;-79
2021/01/16 02:47:24;;;;;;;23.00;11.30;;;;;;;-1.94;87.55;100102.09;5106534;27;20046;-79
2021/01/16 02:49:53;;;;;;;21.23;11.60;;;;;;;-1.91;87.16;100096.59;5099938;28;20644;-80
2021/01/16 02:52:21;;;;;;;26.63;11.43;;;;;;;-1.88;87.45;100103.53;5094746;28;20051;-79
2021/01/16 02:54:48;;;;;;;24.70;11.53;;;;;;;-1.82;86.92;100100.56;5094330;28;20052;-79
2021/01/16 02:57:15;;;;;;;23.17;11.43;;;;;;;-1.92;87.24;100075.34;5095033;28;20487;-80
2021/01/16 02:59:43;;;;;;;26.93;11.67;;;;;;;-1.74;86.48;100101.00;5094627;28;20078;-79
2021/01/16 03:02:11;;;;;;;27.43;11.80;;;;;;;-1.92;86.70;100088.69;5095034;28;20055;-79
2021/01/16 03:04:39;;;;;;;26.03;11.10;;;;;;;-1.85;87.09;100103.38;5076004;28;20393;-80
2021/01/16 03:07:07;;;;;;;21.63;10.57;;;;;;;-1.87;87.53;100089.28;5093722;28;20048;-80
2021/01/16 03:09:35;;;;;;;25.60;10.63;;;;;;;-1.94;87.38;100099.41;5094018;28;20060;-80
2021/01/16 03:12:02;;;;;;;24.17;11.07;;;;;;;-1.96;87.56;100101.28;5075952;28;20116;-80
2021/01/16 03:14:34;;;;;;;21.57;10.73;;;;;;;-2.06;87.44;100084.94;5111375;28;20075;-80
2021/01/16 03:17:10;;;;;;;23.53;11.53;;;;;;;-2.08;87.80;100076.16;5101219;28;20488;-80
2021/01/16 03:19:52;;;;;;;20.23;10.57;;;;;;;-1.98;87.63;100068.53;5093795;28;20052;-79
2021/01/16 03:22:21;;;;;;;25.23;10.33;;;;;;;-1.92;88.02;100092.19;5102641;28;20040;-79
2021/01/16 03:24:50;;;;;;;24.17;11.97;;;;;;;-2.03;87.41;100076.78;5104865;28;20043;-79
2021/01/16 03:27:17;;;;;;;25.73;12.43;;;;;;;-1.85;87.74;100103.38;5114748;28;20123;-80
2021/01/16 03:29:44;;;;;;;23.70;11.67;;;;;;;-2.06;87.53;100065.41;5114815;28;20055;-80
2021/01/16 03:32:12;;;;;;;28.77;11.63;;;;;;;-1.88;87.46;100082.22;5114537;28;20044;-80
2021/01/16 03:34:39;;;;;;;25.53;10.13;;;;;;;-1.91;87.50;100099.25;5114223;28;20054;-80
2021/01/16 03:37:06;;;;;;;21.60;10.50;;;;;;;-2.02;87.73;100082.97;5130236;27;20410;-79
2021/01/16 03:39:32;;;;;;;19.77;10.40;;;;;;;-1.88;87.21;100107.09;5134764;27;20054;-79
2021/01/16 03:41:59;;;;;;;25.80;11.20;;;;;;;-1.93;88.08;100098.44;5114012;27;20098;-79
2021/01/16 03:44:25;;;;;;;19.10;10.07;;;;;;;-1.92;87.59;100096.66;5092694;28;20044;-79
2021/01/16 03:46:52;;;;;;;22.10;10.30;;;;;;;-1.93;87.88;100092.28;5096737;28;20395;-79
2021/01/16 03:49:19;;;;;;;25.23;11.73;;;;;;;-2.02;88.13;100081.19;5094363;28;20056;-80
2021/01/16 03:51:45;;;;;;;23.37;10.37;;;;;;;-1.97;88.15;100099.59;5093808;28;20047;-80
2021/01/16 03:54:12;;;;;;;23.33;10.33;;;;;;;-2.03;88.01;100081.22;5095812;28;20047;-80
2021/01/16 03:56:45;;;;;;;22.17;11.10;;;;;;;-2.02;87.89;100082.97;5093854;28;20101;-79
2021/01/16 03:59:11;;;;;;;23.70;10.70;;;;;;;-1.89;87.68;100093.84;5094111;28;20056;-79
2021/01/16 04:01:39;;;;;;;25.30;11.53;;;;;;;-1.95;87.42;100092.34;5093604;28;20044;-79
2021/01/16 04:04:05;;;;;;;26.87;11.40;;;;;;;-1.99;87.94;100093.44;5099541;28;20548;-80
2021/01/16 04:06:32;;;;;;;21.77;10.17;;;;;;;-1.92;87.89;100094.00;5113919;28;20093;-80
2021/01/16 04:08:58;;;;;;;21.70;11.37;;;;;;;-1.87;87.45;100099.94;5114319;28;20059;-80
2021/01/16 04:11:25;;;;;;;23.87;11.50;;;;;;;-1.96;87.86;100099.50;5112886;28;20058;-79
2021/01/16 04:13:51;;;;;;;22.50;10.40;;;;;;;-2.07;88.11;100087.69;5103719;28;20048;-79
2021/01/16 04:16:17;;;;;;;28.90;11.93;;;;;;;-1.96;88.36;100103.94;5075037;28;20051;-79
2021/01/16 04:18:44;;;;;;;20.87;11.43;;;;;;;-1.97;88.13;100103.09;5100880;28;20052;-79
2021/01/16 04:21:10;;;;;;;25.33;11.87;;;;;;;-1.99;87.72;100093.44;5113935;28;20043;-79
2021/01/16 04:23:37;;;;;;;22.97;11.10;;;;;;;-2.03;87.90;100092.78;5114014;28;20088;-79
2021/01/16 04:26:03;;;;;;;29.23;12.67;;;;;;;-2.05;88.20;100099.13;5096834;28;20105;-79
2021/01/16 04:28:29;;;;;;;24.17;10.77;;;;;;;-2.01;87.85;100096.19;5094444;28;20063;-79
2021/01/16 04:30:56;;;;;;;25.40;11.77;;;;;;;-2.00;87.78;100102.41;5098559;28;20051;-79
2021/01/16 04:33:22;;;;;;;22.43;11.03;;;;;;;-2.06;88.39;100100.94;5110887;28;20051;-79
2021/01/16 04:35:48;;;;;;;23.07;11.57;;;;;;;-1.98;88.07;100100.53;5113099;28;20051;-80
2021/01/16 04:38:15;;;;;;;26.90;11.93;;;;;;;-2.01;88.13;100087.34;5114396;28;20052;-79
2021/01/16 04:40:42;;;;;;;21.40;11.47;;;;;;;-2.07;88.14;100096.53;5114084;28;20055;-80
2021/01/16 04:43:09;;;;;;;27.33;11.87;;;;;;;-2.11;88.22;100091.44;5114486;28;20059;-80
2021/01/16 04:45:35;;;;;;;26.20;11.40;;;;;;;-2.27;88.29;100081.63;5111478;28;20415;-80
2021/01/16 04:48:03;;;;;;;22.60;11.50;;;;;;;-2.15;88.84;100098.75;5092936;28;20051;-80
2021/01/16 04:50:32;;;;;;;26.83;11.00;;;;;;;-2.07;88.70;100093.88;5093195;28;20044;-80
2021/01/16 04:53:02;;;;;;;30.47;12.90;;;;;;;-1.80;88.34;100091.53;5093400;28;20056;-80
2021/01/16 04:55:33;;;;;;;27.25;11.55;;;;;;;-1.94;87.75;100064.78;5093305;28;20134;-80
2021/01/16 04:58:08;;;;;;;27.20;11.37;;;;;;;-1.96;87.38;100070.19;5093042;28;20510;-80
2021/01/16 05:00:36;;;;;;;24.60;11.60;;;;;;;-2.14;88.05;100077.38;5115676;28;20063;-80
2021/01/16 05:03:09;;;;;;;30.83;12.40;;;;;;;-2.05;89.20;100104.44;5122283;28;20043;-80
2021/01/16 05:05:39;;;;;;;30.77;12.50;;;;;;;-1.99;89.09;100096.13;5075178;28;20040;-80
2021/01/16 05:08:06;;;;;;;31.88;13.10;;;;;;;-2.08;88.50;100076.16;5096623;28;20039;-80
2021/01/16 05:10:38;;;;;;;28.53;13.00;;;;;;;-1.95;88.08;100071.03;5113882;28;20056;-80
2021/01/16 05:13:10;;;;;;;29.37;12.07;;;;;;;-1.88;87.92;100088.41;5110154;28;20389;-80
2021/01/16 05:15:37;;;;;;;30.07;12.90;;;;;;;-1.99;88.96;100091.66;5092935;28;20135;-80
2021/01/16 05:18:06;;;;;;;34.87;12.77;;;;;;;-2.06;88.71;100076.94;5093281;28;20056;-80
2021/01/16 05:20:33;;;;;;;30.80;12.97;;;;;;;-1.93;88.74;100093.13;5103624;28;20051;-79
2021/01/16 05:23:18;;;;;;;28.43;13.33;;;;;;;-1.91;88.15;100090.38;5113348;28;20044;-80
2021/01/16 05:25:49;;;;;;;26.60;12.57;;;;;;;-1.92;88.15;100073.53;5111881;28;20104;-80
2021/01/16 05:28:17;;;;;;;26.93;12.70;;;;;;;-1.93;88.03;100079.78;5113723;28;20051;-80
2021/01/16 05:30:49;;;;;;;33.67;13.43;;;;;;;-2.02;88.25;100078.50;5117326;28;20047;-80
2021/01/16 05:33:15;;;;;;;27.70;11.67;;;;;;;-2.00;88.11;100081.94;5106383;28;20098;-80
2021/01/16 05:35:44;;;;;;;25.63;11.67;;;;;;;-2.09;88.60;100073.56;5096519;28;20048;-79
2021/01/16 05:38:12;;;;;;;27.00;12.07;;;;;;;-2.04;88.40;100096.38;5100737;27;20101;-80
2021/01/16 05:40:40;;;;;;;27.73;12.70;;;;;;;-2.10;88.06;100071.88;5131152;27;20130;-80
2021/01/16 05:43:07;;;;;;;28.07;12.97;;;;;;;-2.11;88.31;100063.00;5117011;28;20109;-80
2021/01/16 05:45:35;;;;;;;30.43;12.83;;;;;;;-1.97;87.95;100094.25;5116406;28;20465;-79
2021/01/16 05:48:03;;;;;;;26.97;12.40;;;;;;;-2.03;88.04;100091.88;5134776;27;20055;-80
2021/01/16 05:50:30;;;;;;;26.80;13.03;;;;;;;-1.94;87.75;100088.75;5096797;28;20094;-80
2021/01/16 05:52:57;;;;;;;30.23;13.83;;;;;;;-1.95;87.53;100084.38;5096742;28;20048;-80
2021/01/16 05:55:24;;;;;;;25.23;11.77;;;;;;;-2.10;87.40;100063.88;5096514;28;20117;-80
2021/01/16 05:58:03;;;;;;;22.80;11.40;;;;;;;-1.87;87.20;100090.13;5125811;27;20050;-80
2021/01/16 06:00:35;;;;;;;26.92;11.38;;;;;;;-1.90;87.91;100086.78;5100583;28;20040;-80
2021/01/16 06:03:02;;;;;;;30.80;12.60;;;;;;;-2.02;87.71;100066.97;5107434;28;20082;-80
2021/01/16 06:05:29;;;;;;;28.57;11.43;;;;;;;-1.87;87.33;100084.78;5116234;28;20039;-80
2021/01/16 06:07:56;;;;;;;26.77;11.17;;;;;;;-1.96;87.65;100072.84;5116335;28;20051;-80
2021/01/16 06:10:23;;;;;;;28.47;13.13;;;;;;;-1.87;87.40;100079.47;5116730;28;20059;-80
2021/01/16 06:12:51;;;;;;;26.07;12.17;;;;;;;-1.96;87.59;100074.63;5116545;27;20051;-80
2021/01/16 06:15:20;;;;;;;27.30;12.47;;;;;;;-1.85;86.91;100074.94;5114799;28;20047;-80
2021/01/16 06:17:48;;;;;;;26.53;12.57;;;;;;;-1.96;87.46;100067.53;5115073;27;20055;-80
2021/01/16 06:20:19;;;;;;;30.10;12.97;;;;;;;-1.89;87.54;100084.03;5094469;28;20097;-80
2021/01/16 06:22:49;;;;;;;32.13;13.20;;;;;;;-2.05;87.00;100072.47;5096249;28;20052;-79
2021/01/16 06:25:20;;;;;;;27.03;11.57;;;;;;;-2.01;87.52;100084.69;5115837;27;20065;-80
2021/01/16 06:27:48;;;;;;;28.97;12.43;;;;;;;-2.04;87.97;100085.72;5116036;28;20047;-80
2021/01/16 06:30:16;;;;;;;26.67;13.10;;;;;;;-2.01;87.72;100082.88;5115818;27;20063;-80
2021/01/16 06:32:49;;;;;;;25.90;12.53;;;;;;;-2.04;87.92;100071.53;5115613;28;20116;-79
2021/01/16 06:35:17;;;;;;;35.63;13.07;;;;;;;-2.00;87.34;100083.75;5097709;28;20059;-80
2021/01/16 06:37:44;;;;;;;28.77;13.07;;;;;;;-1.88;87.28;100080.44;5095230;28;20557;-80
2021/01/16 06:40:13;;;;;;;27.03;12.07;;;;;;;-1.97;87.37;100075.59;5094959;28;20055;-79
2021/01/16 06:42:40;;;;;;;25.23;11.90;;;;;;;-2.13;87.72;100068.41;5095338;28;20412;-78
2021/01/16 06:45:11;;;;;;;27.20;12.00;;;;;;;-2.08;87.85;100057.50;5094609;28;20051;-79
2021/01/16 06:47:38;;;;;;;26.50;12.70;;;;;;;-2.03;87.69;100065.25;5095770;28;20051;-82
2021/01/16 06:50:09;;;;;;;26.13;12.47;;;;;;;-2.07;88.29;100074.38;5095079;28;20131;-81
2021/01/16 06:52:36;;;;;;;22.53;11.53;;;;;;;-2.05;88.76;100077.81;5095599;28;20704;-82
2021/01/16 06:55:07;;;;;;;26.07;12.40;;;;;;;-2.25;88.16;100042.44;5095312;28;20055;-81
2021/01/16 06:57:34;;;;;;;28.27;12.77;;;;;;;-2.26;88.22;100055.81;5103047;28;20059;-81
2021/01/16 07:00:07;;;;;;;26.90;11.93;;;;;;;-2.20;88.42;100066.16;5115723;28;20396;-80
2021/01/16 07:02:36;;;;;;;27.60;12.40;;;;;;;-2.08;88.00;100056.66;5105210;28;20055;-80
2021/01/16 07:05:04;;;;;;;33.33;12.97;;;;;;;-2.15;87.49;100061.47;5094367;28;20047;-80
2021/01/16 07:07:37;;;;;;;31.00;13.97;;;;;;;-2.16;87.25;100043.75;5095928;28;20055;-80
2021/01/16 07:10:08;;;;;;;32.37;14.13;;;;;;;-2.00;87.44;100055.28;5094912;28;20071;-82
2021/01/16 07:12:44;;;;;;;32.20;13.33;;;;;;;-2.07;87.45;100050.38;5110421;28;20127;-81
2021/01/16 07:15:11;;;;;;;29.60;12.03;;;;;;;-2.07;87.63;100066.38;5116143;27;20036;-82
2021/01/16 07:17:38;;;;;;;29.13;12.83;;;;;;;-2.09;88.27;100073.56;5115040;28;20643;-82
2021/01/16 07:20:07;;;;;;;32.70;13.93;;;;;;;-2.18;87.97;100058.97;5114999;28;20047;-82
2021/01/16 07:22:38;;;;;;;27.13;12.60;;;;;;;-2.24;87.80;100052.16;5121258;27;20051;-81
2021/01/16 07:25:07;;;;;;;29.73;13.10;;;;;;;-2.19;87.74;100060.75;5128574;27;20043;-81
2021/01/16 07:27:34;;;;;;;29.00;11.77;;;;;;;-2.08;87.42;100076.16;5115152;28;20067;-82
2021/01/16 07:30:02;;;;;;;33.87;12.73;;;;;;;-2.03;87.90;100087.44;5094721;28;20090;-82
2021/01/16 07:32:39;;;;;;;31.50;13.27;;;;;;;-2.16;88.05;100057.91;5094659;28;20048;-82
2021/01/16 07:35:10;;;;;;;31.10;13.07;;;;;;;-2.10;87.58;100085.19;5107636;28;20044;-82
2021/01/16 07:37:39;;;;;;;32.93;14.10;;;;;;;-1.99;87.68;100091.66;5133499;27;20055;-82
2021/01/16 07:40:14;;;;;;;30.63;14.20;;;;;;;-2.01;87.55;100085.53;5135182;27;20583;-79
2021/01/16 07:42:50;;;;;;;29.27;13.47;;;;;;;-2.12;87.82;100071.94;5134450;27;20515;-79
2021/01/16 07:45:24;;;;;;;30.10;12.97;;;;;;;-2.05;87.62;100056.47;5134030;27;20047;-82
2021/01/16 07:47:53;;;;;;;35.73;13.43;;;;;;;-1.93;87.45;100076.28;5134173;27;20058;-81
2021/01/16 07:50:22;;;;;;;32.50;14.90;;;;;;;-1.99;86.95;100058.81;5131849;27;20050;-81
2021/01/16 07:53:05;;;;;;;35.87;15.13;;;;;;;-1.87;86.32;100081.28;5113993;28;20493;-82
2021/01/16 07:55:47;;;;;;;32.63;15.00;;;;;;;-2.10;86.67;100067.38;5110794;28;20548;-81
2021/01/16 07:58:42;;;;;;;27.57;12.40;;;;;;;-1.79;86.48;100089.75;5104183;28;20051;-82
2021/01/16 08:01:14;;;;;;;22.37;11.47;;;;;;;-2.01;85.82;100063.38;5093221;28;20059;-82
2021/01/16 08:04:09;;;;;;;32.13;13.40;;;;;;;-1.96;86.02;100063.97;5094599;28;20067;-82
2021/01/16 08:06:53;;;;;;;29.07;13.47;;;;;;;-1.82;86.12;100077.44;5113692;28;20055;-82
2021/01/16 08:09:29;;;;;;;30.83;14.07;;;;;;;-1.84;85.90;100081.97;5094269;28;20040;-80
2021/01/16 08:11:59;;;;;;;33.47;15.20;;;;;;;-1.88;85.88;100072.44;5113242;28;20047;-81
2021/01/16 08:14:32;;;;;;;27.37;13.10;;;;;;;-1.86;85.49;100072.34;5112643;28;20052;-81
2021/01/16 08:17:01;;;;;;;30.93;13.13;;;;;;;-1.76;85.85;100078.91;5113451;28;20048;-80
2021/01/16 08:19:32;;;;;;;35.80;15.03;;;;;;;-1.69;85.68;100085.59;5112302;28;20044;-80
2021/01/16 08:22:00;;;;;;;26.03;12.83;;;;;;;-1.70;84.80;100075.00;5113748;28;20411;-80
2021/01/16 08:24:30;;;;;;;29.73;13.23;;;;;;;-1.73;84.58;100068.06;5113943;28;20488;-80
2021/01/16 08:26:58;;;;;;;24.97;11.93;;;;;;;-1.66;84.77;100077.44;5133862;27;20437;-80
2021/01/16 08:29:25;;;;;;;27.43;12.40;;;;;;;-1.72;85.06;100069.78;5134685;27;20054;-80
2021/01/16 08:32:02;;;;;;;28.87;12.47;;;;;;;-1.68;84.92;100068.66;5131687;27;20108;-80
2021/01/16 08:34:48;;;;;;;29.00;13.50;;;;;;;-1.60;85.09;100070.91;5110273;28;20051;-80
2021/01/16 08:37:26;;;;;;;29.53;13.60;;;;;;;-1.66;85.56;100058.75;5093608;28;20059;-80
2021/01/16 08:39:54;;;;;;;30.87;13.47;;;;;;;-1.65;84.90;100065.81;5093590;28;20059;-80
2021/01/16 08:42:25;;;;;;;36.37;11.10;;;;;;;-1.62;84.44;100064.81;5115432;28;20039;-80
2021/01/16 08:44:52;;;;;;;33.03;13.13;;;;;;;-1.54;84.85;100069.72;5133208;28;20050;-80
2021/01/16 08:47:19;;;;;;;27.50;12.23;;;;;;;-1.51;84.73;100062.38;5122123;28;20114;-80
2021/01/16 08:50:16;;;;;;;30.43;13.93;;;;;;;-1.45;84.27;100064.69;5111504;28;20051;-80
2021/01/16 08:52:43;;;;;;;26.67;11.63;;;;;;;-1.51;84.51;100053.53;5112492;28;20059;-80
2021/01/16 08:55:14;;;;;;;26.87;13.23;;;;;;;-1.38;84.82;100062.56;5121607;28;20937;-80
2021/01/16 08:57:43;;;;;;;33.43;13.80;;;;;;;-1.52;84.51;100038.47;5118837;28;20052;-80
2021/01/16 09:00:19;;;;;;;26.08;12.63;;;;;;;-1.29;84.92;100055.84;5090411;28;20056;-79
2021/01/16 09:03:05;;;;;;;28.50;13.63;;;;;;;-1.34;84.26;100048.13;5096866;28;20059;-80
2021/01/16 09:05:33;;;;;;;30.53;13.73;;;;;;;-1.35;83.86;100053.53;5104691;28;20041;-81
2021/01/16 09:07:59;;;;;;;25.43;11.80;;;;;;;-1.47;83.56;100037.25;5090549;28;20048;-83
2021/01/16 09:10:35;;;;;;;23.67;12.53;;;;;;;-1.37;82.77;100050.06;5096954;28;20127;-81
2021/01/16 09:13:01;;;;;;;30.90;14.27;;;;;;;-1.39;83.47;100039.50;5107105;28;20043;-79
2021/01/16 09:15:30;;;;;;;29.00;12.73;;;;;;;-1.19;82.94;100061.50;5104234;28;20044;-80
2021/01/16 09:18:08;;;;;;;25.63;13.17;;;;;;;-1.33;83.64;100043.63;5096912;28;20133;-80
2021/01/16 09:20:36;;;;;;;33.50;14.27;;;;;;;-1.14;82.49;100073.66;5107866;28;20416;-80
2021/01/16 09:23:26;;;;;;;37.13;15.50;;;;;;;-1.23;82.33;100073.28;5116466;28;20055;-80
2021/01/16 09:25:55;;;;;;;32.38;14.93;;;;;;;-1.22;83.13;100067.03;5097816;28;20044;-80
2021/01/16 09:28:55;;;;;;;27.38;12.77;;;;;;;-1.14;83.18;100080.81;5112503;28;20048;-80
2021/01/16 09:31:22;;;;;;;;;;;;;;;-1.04;82.86;100089.13;5053470;28;20048;-80
2021/01/16 09:33:52;;;;;;;26.30;12.17;;;;;;;-1.33;83.63;100057.81;5046212;28;19968;-80
2021/01/16 09:36:33;;;;;;;;;;;;;;;-1.14;83.27;100086.13;5078501;28;20449;-80
2021/01/16 09:39:22;;;;;;;24.43;9.50;;;;;;;-1.17;82.60;100091.66;5100023;28;19923;-81
2021/01/16 09:41:51;;;;;;;22.88;11.35;;;;;;;-1.35;81.69;100074.88;5102021;27;20432;-80
2021/01/16 09:44:52;;;;;;;26.60;13.40;;;;;;;-1.23;82.96;100092.84;5109952;28;20044;-80
2021/01/16 09:47:45;;;;;;;27.07;13.43;;;;;;;-1.30;82.81;100094.16;5096097;28;20131;-80
2021/01/16 09:50:13;;;;;;;27.93;12.63;;;;;;;-1.35;83.24;100098.88;5095735;28;20048;-80
2021/01/16 09:52:47;;;;;;;27.47;13.23;;;;;;;-1.32;83.55;100085.38;5095315;28;20051;-80
2021/01/16 09:55:18;;;;;;;25.30;12.63;;;;;;;-1.18;83.34;100082.75;5113115;28;20047;-80
2021/01/16 09:57:57;;;;;;;34.53;13.53;;;;;;;-1.16;83.09;100083.56;5116338;28;20051;-80
2021/01/16 10:00:30;;;;;;;26.30;14.20;;;;;;;-1.27;83.70;100085.97;5100149;28;20044;-80
2021/01/16 10:03:02;;;;;;;31.53;13.33;;;;;;;-1.30;82.81;100081.66;5094807;28;20048;-80
2021/01/16 10:05:31;;;;;;;37.30;16.20;;;;;;;-1.28;82.56;100079.78;5094871;28;20048;-81
2021/01/16 10:07:58;;;;;;;26.50;13.30;;;;;;;-1.22;82.76;100078.53;5094789;28;20051;-81
2021/01/16 10:10:24;;;;;;;27.90;13.07;;;;;;;-1.21;81.64;100077.59;5095902;28;20079;-81
2021/01/16 10:12:59;;;;;;;20.67;9.67;;;;;;;-1.35;80.77;100058.88;5077948;28;20727;-80
2021/01/16 10:15:32;;;;;;;22.33;11.70;;;;;;;-1.25;81.26;100065.38;5094174;28;20056;-80
2021/01/16 10:17:59;;;;;;;28.90;11.73;;;;;;;-1.31;81.01;100052.41;5112466;27;20048;-80
2021/01/16 10:20:37;;;;;;;25.40;13.00;;;;;;;-1.35;80.29;100033.03;5112114;28;20044;-80
2021/01/16 10:23:07;;;;;;;24.73;11.63;;;;;;;-1.26;79.69;100048.53;5105330;28;20108;-80
2021/01/16 10:25:44;;;;;;;23.80;11.30;;;;;;;-1.22;79.82;100046.53;5093295;28;20044;-80
2021/01/16 10:28:26;;;;;;;26.70;12.07;;;;;;;-1.05;80.39;100042.91;5104862;28;20047;-80
2021/01/16 10:31:01;;;;;;;24.73;11.53;;;;;;;-1.07;79.83;100026.09;5097717;28;20091;-81
2021/01/16 10:33:41;;;;;;;27.37;12.53;;;;;;;-0.87;78.30;100026.75;5114990;28;20048;-80
2021/01/16 10:39:37;;;;;;;18.63;10.70;;;;;;;-0.92;77.08;100016.34;5115909;28;20058;-80
2021/01/16 10:42:11;;;;;;;24.48;12.02;;;;;;;-0.87;76.58;100014.28;5115434;28;20055;-80
2021/01/16 10:44:40;;;;;;;23.13;11.90;;;;;;;-0.84;76.66;100008.75;5111523;28;20093;-81
2021/01/16 10:47:32;;;;;;;20.60;10.27;;;;;;;-0.91;75.91;100002.91;5100261;28;20517;-80
2021/01/16 10:50:05;;;;;;;24.70;11.13;;;;;;;-0.91;76.82;100000.22;5115032;27;20044;-81
2021/01/16 10:52:31;;;;;;;20.13;10.50;;;;;;;-0.92;76.90;99990.53;5104779;28;20076;-80
2021/01/16 10:54:59;;;;;;;24.57;9.60;;;;;;;-0.79;76.11;99989.78;5093467;28;20051;-81
2021/01/16 10:57:28;;;;;;;23.43;9.60;;;;;;;-0.83;76.64;99982.91;5097322;28;22348;-80
2021/01/16 11:00:09;;;;;;;21.43;11.33;;;;;;;-0.79;76.51;99976.44;5114720;28;20437;-81
2021/01/16 11:02:37;;;;;;;23.53;10.90;;;;;;;-0.84;77.92;99981.16;5114639;28;20047;-81
2021/01/16 11:05:25;;;;;;;19.10;9.20;;;;;;;-0.65;76.30;99981.78;5115314;28;20044;-80
2021/01/16 11:08:18;;;;;;;22.73;10.73;;;;;;;-0.62;76.33;99975.41;5110203;28;20051;-81
2021/01/16 11:10:49;;;;;;;22.83;10.37;;;;;;;-0.76;75.72;99966.41;5094849;28;20048;-81
2021/01/16 11:13:17;;;;;;;22.00;9.93;;;;;;;-0.83;75.82;99962.38;5103129;28;20090;-81
2021/01/16 11:15:45;;;;;;;23.70;10.33;;;;;;;-0.83;75.93;99956.19;5100785;28;20051;-81
2021/01/16 11:18:27;;;;;;;24.07;10.33;;;;;;;-0.49;76.21;99981.72;5114578;28;20206;-81
2021/01/16 11:21:02;;;;;;;19.57;10.07;;;;;;;-0.52;75.82;99967.69;5096909;28;20108;-81
2021/01/16 11:23:43;;;;;;;15.83;7.40;;;;;;;-0.72;75.73;99975.97;5114436;28;20056;-81
2021/01/16 11:26:11;;;;;;;25.03;11.53;;;;;;;-0.75;75.49;99957.47;5101008;28;20392;-81
2021/01/16 11:28:52;;;;;;;25.47;11.07;;;;;;;-0.58;75.67;99974.25;5114715;28;20641;-81
2021/01/16 11:31:28;;;;;;;26.63;10.50;;;;;;;-0.48;75.33;99964.75;5114748;28;20415;-81
2021/01/16 11:34:25;;;;;;;23.37;11.63;;;;;;;-0.49;75.48;99967.50;5114700;28;20059;-81